METAR Data
IDs: Format: Raw Decoded Include TAF

Data at: 0220 UTC 25 Feb 2021

LKTB 250200Z 33004KT CAVOK 02/01 Q1032 NOSIG